Time;durP1;ratioP1;P1;durP2;ratioP2;P2;SDS_P1;SDS_P2;PMS_P1;PMS_P2;Temp;Humidity;BMP_temperature;BMP_pressure;BME280_temperature;BME280_humidity;BME280_pressure;Samples;Min_cycle;Max_cycle;Signal;HPM_P1;HPM_P2
2023/04/01 00:00:20;;;;;;;17.17;6.73;;;8.60;99.90;;;;;;5038847;28;20271;-82
2023/04/01 00:02:46;;;;;;;21.40;9.00;;;8.50;99.90;;;;;;5057083;28;20621;-81
2023/04/01 00:05:12;;;;;;;12.30;7.20;;;8.50;99.90;;;;;;5056488;28;20175;-82
2023/04/01 00:07:38;;;;;;;17.20;7.10;;;8.50;99.90;;;;;;5056773;28;20633;-82
2023/04/01 00:10:06;;;;;;;19.83;7.27;;;8.40;99.90;;;;;;5056664;28;20195;-82
2023/04/01 00:12:32;;;;;;;13.93;7.33;;;8.40;99.90;;;;;;5056306;28;20184;-82
2023/04/01 00:14:58;;;;;;;18.57;7.53;;;8.30;99.90;;;;;;5055176;28;20180;-82
2023/04/01 00:17:24;;;;;;;12.53;7.07;;;8.30;99.90;;;;;;5056228;28;20220;-82
2023/04/01 00:19:50;;;;;;;10.60;5.67;;;8.30;99.90;;;;;;5055292;28;20191;-81
2023/04/01 00:22:16;;;;;;;13.57;6.63;;;8.30;99.90;;;;;;5055948;28;20184;-82
2023/04/01 00:24:42;;;;;;;13.23;7.07;;;8.20;99.90;;;;;;5056487;28;20229;-81
2023/04/01 00:27:08;;;;;;;17.77;7.60;;;8.20;99.90;;;;;;5055056;28;20191;-85
2023/04/01 00:29:34;;;;;;;13.43;7.03;;;8.10;99.90;;;;;;5056398;28;20211;-83
2023/04/01 00:32:00;;;;;;;14.87;6.80;;;8.10;99.90;;;;;;5056316;28;20217;-82
2023/04/01 00:34:26;;;;;;;13.27;6.03;;;8.10;99.90;;;;;;5054737;28;20587;-81
2023/04/01 00:36:52;;;;;;;14.27;8.13;;;8.10;99.90;;;;;;5055027;28;20520;-81
2023/04/01 00:39:19;;;;;;;33.97;12.93;;;8.00;99.90;;;;;;5021790;28;20193;-81
2023/04/01 00:41:45;;;;;;;16.17;7.07;;;8.00;99.90;;;;;;5038344;28;20518;-82
2023/04/01 00:44:29;;;;;;;23.10;11.57;;;8.00;99.90;;;;;;5055816;28;20183;-82
2023/04/01 00:46:56;;;;;;;18.00;8.87;;;8.00;99.90;;;;;;5056119;28;20168;-82
2023/04/01 00:49:33;;;;;;;20.03;8.97;;;7.90;99.90;;;;;;5055751;28;20231;-82
2023/04/01 00:52:01;;;;;;;23.67;8.67;;;7.90;99.90;;;;;;5055995;28;20225;-81
2023/04/01 00:54:29;;;;;;;19.97;9.00;;;7.90;99.90;;;;;;5055786;28;20179;-81
2023/04/01 00:57:30;;;;;;;12.33;6.80;;;7.80;99.90;;;;;;5055957;28;20176;-81
2023/04/01 00:59:55;;;;;;;18.23;7.10;;;7.80;99.90;;;;;;5040241;28;20282;-82
2023/04/01 01:02:22;;;;;;;14.90;6.70;;;7.80;99.90;;;;;;5037710;28;20673;-81
2023/04/01 01:04:47;;;;;;;12.17;6.63;;;7.80;99.90;;;;;;5037974;28;20203;-82
2023/04/01 01:07:25;;;;;;;16.00;8.03;;;7.80;99.90;;;;;;5037666;28;20226;-84
2023/04/01 01:10:18;;;;;;;15.07;7.60;;;7.80;99.90;;;;;;5054276;28;20690;-82
2023/04/01 01:12:52;;;;;;;13.00;6.50;;;7.80;99.90;;;;;;5055781;28;20176;-82
2023/04/01 01:15:26;;;;;;;37.40;12.33;;;7.80;99.90;;;;;;5055329;28;20196;-83
2023/04/01 01:18:25;;;;;;;13.27;6.70;;;7.80;99.90;;;;;;5055277;28;20277;-82
2023/04/01 01:20:50;;;;;;;12.87;6.20;;;7.90;99.90;;;;;;5055571;28;20636;-82
2023/04/01 01:23:36;;;;;;;12.43;5.33;;;7.90;99.90;;;;;;5053854;28;20179;-82
2023/04/01 01:26:05;;;;;;;22.47;8.07;;;7.90;99.90;;;;;;5055341;28;20183;-82
2023/04/01 01:28:52;;;;;;;20.57;9.00;;;7.90;99.90;;;;;;5055021;28;20211;-82
2023/04/01 01:31:58;;;;;;;14.97;7.37;;;8.00;99.90;;;;;;5055268;28;20213;-83
2023/04/01 01:35:03;;;;;;;12.40;6.03;;;7.90;99.90;;;;;;5005059;28;20271;-82
2023/04/01 01:37:30;;;;;;;7.13;4.70;;;8.00;99.90;;;;;;5053757;28;20266;-82
2023/04/01 01:40:01;;;;;;;8.77;5.47;;;8.00;99.90;;;;;;5055079;28;20180;-81
2023/04/01 01:42:30;;;;;;;9.70;5.70;;;7.90;99.90;;;;;;5054708;28;20239;-81
2023/04/01 01:44:59;;;;;;;8.70;4.93;;;8.00;99.90;;;;;;5055078;28;20174;-81
2023/04/01 01:47:27;;;;;;;24.37;9.13;;;8.00;99.90;;;;;;5054751;28;20172;-81
2023/04/01 01:49:55;;;;;;;11.90;6.83;;;8.00;99.90;;;;;;5053571;28;20574;-81
2023/04/01 01:52:22;;;;;;;13.10;6.60;;;8.00;99.90;;;;;;5053494;28;20318;-83
2023/04/01 01:54:53;;;;;;;14.20;6.07;;;8.00;99.90;;;;;;5053673;28;20221;-83
2023/04/01 01:57:24;;;;;;;13.40;6.17;;;8.00;99.90;;;;;;5053740;28;20258;-83
2023/04/01 01:59:55;;;;;;;10.77;5.87;;;8.00;99.90;;;;;;5054840;28;20187;-83
2023/04/01 02:02:22;;;;;;;12.63;5.33;;;8.00;99.90;;;;;;5053172;28;20187;-83
2023/04/01 02:04:49;;;;;;;14.70;7.70;;;8.10;99.90;;;;;;5053455;28;20568;-82
2023/04/01 02:07:22;;;;;;;10.13;5.87;;;8.10;99.90;;;;;;5054536;28;20663;-83
2023/04/01 02:09:49;;;;;;;12.57;7.03;;;8.10;99.90;;;;;;5054401;28;20337;-82
2023/04/01 02:12:17;;;;;;;16.03;6.27;;;8.10;99.90;;;;;;5036252;28;20195;-82
2023/04/01 02:14:45;;;;;;;10.70;5.33;;;8.10;99.90;;;;;;5052884;28;20180;-82
2023/04/01 02:17:26;;;;;;;15.00;6.67;;;8.10;99.90;;;;;;5053979;28;20575;-83
2023/04/01 02:19:58;;;;;;;9.37;5.90;;;8.20;99.90;;;;;;5054713;28;20279;-82
2023/04/01 02:22:28;;;;;;;13.87;6.97;;;8.20;99.90;;;;;;5054076;28;20262;-83
2023/04/01 02:24:57;;;;;;;15.10;5.97;;;8.20;99.90;;;;;;5054394;28;20629;-82
2023/04/01 02:27:24;;;;;;;9.37;4.63;;;8.30;99.90;;;;;;5054069;28;20176;-85
2023/04/01 02:29:50;;;;;;;13.27;6.27;;;8.20;99.90;;;;;;5054231;28;20211;-82
2023/04/01 02:32:17;;;;;;;9.20;6.30;;;8.30;99.90;;;;;;5053010;28;20195;-82
2023/04/01 02:34:43;;;;;;;11.60;5.97;;;8.20;99.90;;;;;;5052720;28;20255;-83
2023/04/01 02:37:11;;;;;;;14.03;6.07;;;8.30;99.90;;;;;;5052733;28;20644;-83
2023/04/01 02:39:36;;;;;;;9.70;5.37;;;8.20;99.90;;;;;;5054048;28;20215;-83
2023/04/01 02:42:02;;;;;;;15.20;7.37;;;8.20;99.90;;;;;;5053790;28;20211;-82
2023/04/01 02:44:28;;;;;;;12.53;6.23;;;8.20;99.90;;;;;;5052256;28;20180;-83
2023/04/01 02:46:53;;;;;;;15.50;6.93;;;8.20;99.90;;;;;;5052592;28;20229;-82
2023/04/01 02:49:19;;;;;;;10.30;5.83;;;8.20;99.90;;;;;;5053617;28;20211;-83
2023/04/01 02:51:45;;;;;;;12.60;6.30;;;8.20;99.90;;;;;;5035636;28;20287;-82
2023/04/01 02:54:10;;;;;;;10.83;5.77;;;8.10;99.90;;;;;;5052598;28;20660;-83
2023/04/01 02:56:36;;;;;;;11.60;6.57;;;8.10;99.90;;;;;;5051854;28;20183;-83
2023/04/01 02:59:02;;;;;;;17.60;6.20;;;8.10;99.90;;;;;;5052449;28;20206;-84
2023/04/01 03:01:29;;;;;;;13.80;6.73;;;8.00;99.90;;;;;;5035813;28;20238;-83
2023/04/01 03:03:55;;;;;;;12.53;6.63;;;9.00;99.90;;;;;;5035826;28;20225;-82
2023/04/01 03:06:20;;;;;;;13.13;6.40;;;8.00;99.90;;;;;;5052198;28;20540;-82
2023/04/01 03:08:46;;;;;;;11.37;6.27;;;8.00;99.90;;;;;;5052101;28;20204;-83
2023/04/01 03:11:12;;;;;;;13.80;6.43;;;8.00;99.90;;;;;;5053426;28;20191;-82
2023/04/01 03:13:38;;;;;;;13.57;5.80;;;8.00;99.90;;;;;;5051889;28;20198;-83
2023/04/01 03:16:04;;;;;;;16.50;7.57;;;8.00;99.90;;;;;;5051831;28;20187;-82
2023/04/01 03:18:30;;;;;;;12.47;6.17;;;8.00;99.90;;;;;;5051591;28;20243;-82
2023/04/01 03:20:55;;;;;;;11.93;5.50;;;8.10;99.90;;;;;;5051936;28;20183;-82
2023/04/01 03:23:21;;;;;;;11.93;6.40;;;8.10;99.90;;;;;;5051123;28;20589;-82
2023/04/01 03:25:47;;;;;;;13.37;6.67;;;8.10;99.90;;;;;;5051493;28;20589;-81
2023/04/01 03:28:13;;;;;;;9.93;4.73;;;8.10;99.90;;;;;;5051520;28;20252;-83
2023/04/01 03:30:39;;;;;;;15.13;6.30;;;8.00;99.90;;;;;;5051670;28;20538;-83
2023/04/01 03:33:06;;;;;;;11.53;6.17;;;8.00;99.90;;;;;;5051211;28;20191;-83
2023/04/01 03:35:32;;;;;;;13.33;5.20;;;8.10;99.90;;;;;;5053174;28;20230;-83
2023/04/01 03:37:58;;;;;;;11.80;6.07;;;8.00;99.90;;;;;;5051783;28;20267;-82
2023/04/01 03:40:26;;;;;;;16.07;6.87;;;8.00;99.90;;;;;;5051584;28;20609;-82
2023/04/01 03:42:52;;;;;;;12.77;6.50;;;8.00;99.90;;;;;;5035372;28;20195;-82
2023/04/01 03:45:17;;;;;;;14.60;7.40;;;8.00;99.90;;;;;;5035253;28;20207;-83
2023/04/01 03:47:43;;;;;;;10.80;6.13;;;8.00;99.90;;;;;;5034965;28;20648;-83
2023/04/01 03:50:10;;;;;;;11.70;6.63;;;7.90;99.90;;;;;;5052663;28;20212;-82
2023/04/01 03:52:35;;;;;;;22.80;9.03;;;8.00;99.90;;;;;;5052704;28;20187;-86
2023/04/01 03:55:04;;;;;;;12.77;6.97;;;8.00;99.90;;;;;;5051918;28;20180;-83
2023/04/01 03:57:33;;;;;;;13.23;6.30;;;7.80;99.90;;;;;;5051920;28;20191;-82
2023/04/01 03:59:59;;;;;;;18.70;7.60;;;7.90;99.90;;;;;;5050815;28;20290;-82
2023/04/01 04:02:24;;;;;;;12.37;7.00;;;7.90;99.90;;;;;;5051686;28;20278;-82
2023/04/01 04:04:50;;;;;;;12.43;6.33;;;7.90;99.90;;;;;;5051777;28;20195;-82
2023/04/01 04:07:15;;;;;;;9.73;5.70;;;7.90;99.90;;;;;;5050560;28;20187;-83
2023/04/01 04:09:41;;;;;;;9.57;6.00;;;7.90;99.90;;;;;;5050866;28;20204;-82
2023/04/01 04:12:07;;;;;;;12.53;6.07;;;7.90;99.90;;;;;;5034723;28;20180;-82
2023/04/01 04:14:32;;;;;;;12.60;6.37;;;7.90;99.90;;;;;;5052002;28;20184;-82
2023/04/01 04:16:58;;;;;;;14.80;6.47;;;8.00;99.90;;;;;;5050734;28;20653;-83
2023/04/01 04:19:24;;;;;;;15.37;7.63;;;8.00;99.90;;;;;;5050740;28;20625;-84
2023/04/01 04:21:50;;;;;;;10.73;6.73;;;8.00;99.90;;;;;;5050711;28;20183;-83
2023/04/01 04:24:15;;;;;;;11.63;6.87;;;8.00;99.90;;;;;;5050668;28;20625;-83
2023/04/01 04:26:41;;;;;;;15.00;7.70;;;8.00;99.90;;;;;;5033525;28;20656;-83
2023/04/01 04:29:07;;;;;;;11.37;6.53;;;8.00;99.90;;;;;;5034346;28;20298;-83
2023/04/01 04:31:32;;;;;;;18.20;6.97;;;8.00;99.90;;;;;;5050926;28;20261;-83
2023/04/01 04:34:00;;;;;;;16.57;7.10;;;8.00;99.90;;;;;;5053147;28;20176;-83
2023/04/01 04:36:26;;;;;;;16.57;6.33;;;8.00;99.90;;;;;;5053687;28;20247;-82
2023/04/01 04:38:52;;;;;;;12.17;6.00;;;8.00;99.90;;;;;;5053763;28;20398;-84
2023/04/01 04:41:21;;;;;;;16.50;6.60;;;8.00;99.90;;;;;;5052975;28;20176;-83
2023/04/01 04:43:55;;;;;;;11.43;5.77;;;8.00;99.90;;;;;;5052332;28;20290;-83
2023/04/01 04:46:22;;;;;;;12.97;7.10;;;8.00;99.90;;;;;;5052949;28;20322;-84
2023/04/01 04:48:47;;;;;;;11.30;6.43;;;8.00;99.90;;;;;;5053122;28;20286;-83
2023/04/01 04:51:18;;;;;;;13.40;6.30;;;8.00;99.90;;;;;;5052365;28;20267;-83
2023/04/01 04:53:45;;;;;;;12.80;6.00;;;8.00;99.90;;;;;;5051462;28;20318;-84
2023/04/01 04:56:11;;;;;;;11.03;5.93;;;8.00;99.90;;;;;;5033525;28;20196;-84
2023/04/01 04:58:38;;;;;;;18.17;7.40;;;8.00;99.90;;;;;;5035423;28;20265;-82
2023/04/01 05:01:12;;;;;;;13.87;6.97;;;8.10;99.90;;;;;;5046352;28;20300;-83
2023/04/01 05:03:39;;;;;;;16.07;6.70;;;8.10;99.90;;;;;;5053159;28;20184;-83
2023/04/01 05:06:07;;;;;;;12.20;7.60;;;8.10;99.90;;;;;;5036373;28;20190;-83
2023/04/01 05:08:33;;;;;;;12.23;6.87;;;;;;;;;;5038621;28;20369;-83
2023/04/01 05:11:00;;;;;;;14.33;7.13;;;8.10;99.90;;;;;;5043905;28;20192;-83
2023/04/01 05:13:26;;;;;;;16.33;7.20;;;8.20;99.90;;;;;;5048156;28;20504;-84
2023/04/01 05:15:51;;;;;;;13.93;7.70;;;8.10;99.90;;;;;;5034902;28;20664;-84
2023/04/01 05:18:17;;;;;;;11.67;6.53;;;8.10;99.90;;;;;;5052661;28;20232;-85
2023/04/01 05:20:51;;;;;;;12.80;6.53;;;8.10;99.90;;;;;;5027988;28;20258;-83
2023/04/01 05:23:17;;;;;;;12.57;6.20;;;8.20;99.90;;;;;;5032195;28;20203;-83
2023/04/01 05:25:44;;;;;;;13.00;6.27;;;8.20;99.90;;;;;;5041513;28;20655;-82
2023/04/01 05:28:10;;;;;;;12.13;7.60;;;8.30;99.90;;;;;;5038153;28;20195;-82
2023/04/01 05:30:36;;;;;;;11.50;6.80;;;8.30;99.90;;;;;;5040573;28;20211;-82
2023/04/01 05:33:02;;;;;;;15.57;8.23;;;8.30;99.90;;;;;;5047149;28;20238;-80
2023/04/01 05:35:28;;;;;;;11.73;6.67;;;8.30;99.90;;;;;;5041515;28;20291;-81
2023/04/01 05:37:54;;;;;;;15.70;6.97;;;8.30;99.90;;;;;;5038694;28;20188;-82
2023/04/01 05:40:20;;;;;;;14.27;6.67;;;8.30;99.90;;;;;;5051988;28;20738;-86
2023/04/01 05:42:46;;;;;;;17.63;6.80;;;8.40;99.90;;;;;;5034431;28;20202;-85
2023/04/01 05:45:11;;;;;;;12.47;5.63;;;8.40;99.90;;;;;;5031192;28;20224;-84
2023/04/01 05:47:37;;;;;;;10.97;5.80;;;8.50;99.90;;;;;;5034994;28;20730;-84
2023/04/01 05:50:03;;;;;;;9.70;5.27;;;8.50;99.90;;;;;;5015923;28;20290;-84
2023/04/01 05:52:28;;;;;;;10.50;5.40;;;8.50;99.90;;;;;;5029821;28;20192;-84
2023/04/01 05:54:54;;;;;;;14.33;6.83;;;8.60;99.90;;;;;;5029564;28;20196;-84
2023/04/01 05:57:20;;;;;;;13.40;5.17;;;;;;;;;;5031024;28;20216;-84
2023/04/01 05:59:46;;;;;;;15.87;5.43;;;8.70;99.90;;;;;;5021544;28;20198;-83
2023/04/01 06:02:18;;;;;;;9.40;5.67;;;8.70;99.90;;;;;;5033983;28;20283;-85
2023/04/01 06:04:44;;;;;;;9.30;5.37;;;8.70;99.90;;;;;;5033493;28;20198;-84
2023/04/01 06:07:19;;;;;;;15.73;5.80;;;8.70;99.90;;;;;;5038015;28;20188;-83
2023/04/01 06:09:45;;;;;;;12.57;6.73;;;8.80;99.90;;;;;;5028437;28;20640;-83
2023/04/01 06:12:29;;;;;;;10.73;6.30;;;8.70;99.90;;;;;;5042004;28;20286;-82
2023/04/01 06:15:10;;;;;;;12.90;6.20;;;8.70;99.90;;;;;;5044589;28;20271;-83
2023/04/01 06:17:44;;;;;;;12.43;6.30;;;8.80;99.90;;;;;;5044877;28;20242;-83
2023/04/01 06:20:29;;;;;;;15.07;6.23;;;8.80;99.90;;;;;;5050860;28;20197;-84
2023/04/01 06:23:16;;;;;;;16.87;6.97;;;8.80;99.90;;;;;;5047839;28;20188;-84
2023/04/01 06:26:01;;;;;;;11.23;6.27;;;8.90;99.90;;;;;;5031169;28;20249;-83
2023/04/01 06:28:46;;;;;;;12.67;6.67;;;8.90;99.90;;;;;;5031192;28;20204;-83
2023/04/01 06:31:49;;;;;;;14.83;6.00;;;8.90;99.90;;;;;;5031103;28;20172;-84
2023/04/01 06:34:29;;;;;;;10.37;5.90;;;8.90;99.90;;;;;;5046984;28;20267;-83
2023/04/01 06:37:20;;;;;;;12.77;5.57;;;9.00;99.90;;;;;;5049047;28;20246;-84
2023/04/01 06:40:37;;;;;;;10.17;5.27;;;9.00;99.90;;;;;;5049783;28;20195;-82
2023/04/01 06:43:25;;;;;;;11.77;5.77;;;8.90;99.90;;;;;;5004543;28;20179;-83
2023/04/01 06:46:17;;;;;;;10.57;5.57;;;8.90;99.90;;;;;;5050176;28;20233;-83
2023/04/01 06:49:05;;;;;;;11.40;6.50;;;9.00;99.90;;;;;;5048347;28;20640;-83
2023/04/01 06:51:46;;;;;;;9.57;5.60;;;9.00;99.90;;;;;;5048057;28;20667;-83
2023/04/01 06:54:24;;;;;;;13.50;6.83;;;9.10;99.90;;;;;;5052472;28;20222;-83
2023/04/01 06:56:57;;;;;;;8.83;5.03;;;9.10;99.90;;;;;;5051678;28;20262;-83
2023/04/01 06:59:27;;;;;;;9.10;5.27;;;9.10;99.90;;;;;;5052414;28;20195;-83
2023/04/01 07:02:04;;;;;;;11.37;6.00;;;9.20;99.90;;;;;;5052423;28;20222;-82
2023/04/01 07:04:35;;;;;;;9.97;5.73;;;9.20;99.90;;;;;;5049280;28;20213;-82
2023/04/01 07:07:24;;;;;;;12.23;5.83;;;9.30;99.90;;;;;;5050265;28;20203;-82
2023/04/01 07:10:17;;;;;;;12.50;6.40;;;9.40;99.90;;;;;;5050668;28;20204;-82
2023/04/01 07:12:56;;;;;;;9.10;5.32;;;9.50;99.90;;;;;;5049785;28;20176;-82
2023/04/01 07:15:28;;;;;;;9.93;6.07;;;9.60;99.90;;;;;;5049328;28;20172;-81
2023/04/01 07:18:11;;;;;;;14.60;6.10;;;9.60;99.90;;;;;;5050559;28;20373;-81
2023/04/01 07:20:38;;;;;;;12.57;7.57;;;9.60;99.90;;;;;;5051480;28;20187;-83
2023/04/01 07:23:23;;;;;;;14.97;6.37;;;9.60;99.90;;;;;;5052039;28;20183;-84
2023/04/01 07:25:55;;;;;;;11.50;4.75;;;9.80;99.90;;;;;;5050391;28;20164;-84
2023/04/01 07:28:22;;;;;;;14.20;7.15;;;10.00;99.90;;;;;;5050325;28;20270;-83
2023/04/01 07:30:53;;;;;;;12.10;7.40;;;10.10;99.90;;;;;;5050602;28;20683;-82
2023/04/01 07:33:32;;;;;;;10.48;6.43;;;10.20;99.90;;;;;;5051870;28;20247;-83
2023/04/01 07:36:08;;;;;;;11.20;6.05;;;10.40;99.90;;;;;;5051098;28;20186;-83
2023/04/01 07:38:51;;;;;;;10.25;5.72;;;10.60;99.90;;;;;;5051927;28;20176;-83
2023/04/01 07:41:29;;;;;;;7.32;4.97;;;10.90;99.90;;;;;;5050324;28;20186;-84
2023/04/01 07:44:19;;;;;;;7.03;3.63;;;11.10;99.90;;;;;;5051731;28;20171;-83
2023/04/01 07:47:08;;;;;;;11.20;5.53;;;11.20;99.90;;;;;;5050224;28;20263;-83
2023/04/01 07:49:47;;;;;;;8.70;4.75;;;11.30;99.90;;;;;;5051398;28;20184;-83
2023/04/01 07:52:39;;;;;;;7.90;4.60;;;11.30;99.90;;;;;;5050624;28;20194;-82
2023/04/01 07:55:16;;;;;;;5.40;3.80;;;11.50;99.90;;;;;;5050970;28;20174;-84
2023/04/01 07:58:05;;;;;;;8.20;4.28;;;11.70;99.90;;;;;;5052754;28;20234;-83
2023/04/01 08:00:42;;;;;;;6.25;4.05;;;11.80;99.90;;;;;;5053290;28;20233;-84
2023/04/01 08:03:45;;;;;;;9.38;4.90;;;11.70;99.90;;;;;;5052629;28;20218;-83
2023/04/01 08:06:19;;;;;;;9.82;3.92;;;11.70;99.90;;;;;;5049925;28;20202;-82
2023/04/01 08:09:02;;;;;;;6.00;3.70;;;11.70;99.90;;;;;;5053860;28;20199;-83
2023/04/01 08:12:03;;;;;;;7.30;3.80;;;11.70;99.90;;;;;;5056265;28;20214;-83
2023/04/01 08:14:45;;;;;;;6.80;4.43;;;11.70;99.90;;;;;;5056487;28;20168;-81
2023/04/01 08:17:27;;;;;;;7.55;5.03;;;11.80;99.90;;;;;;5054751;28;20238;-82
2023/04/01 08:20:04;;;;;;;11.77;4.53;;;11.70;99.90;;;;;;5055527;28;20188;-83
2023/04/01 08:22:37;;;;;;;6.75;3.40;;;11.90;99.90;;;;;;5056203;28;20189;-83
2023/04/01 08:25:07;;;;;;;6.22;3.50;;;11.90;99.90;;;;;;5058158;28;20171;-81
2023/04/01 08:27:51;;;;;;;6.78;3.33;;;12.00;99.90;;;;;;5057984;28;20180;-81
2023/04/01 08:30:52;;;;;;;6.38;3.28;;;12.00;99.90;;;;;;5054736;28;20219;-82
2023/04/01 08:33:30;;;;;;;4.53;2.75;;;12.30;99.90;;;;;;5045448;28;20195;-82
2023/04/01 08:35:58;;;;;;;4.45;2.70;;;12.30;99.90;;;;;;5056083;28;20191;-83
2023/04/01 08:38:32;;;;;;;4.82;3.33;;;12.30;99.90;;;;;;5054748;28;20290;-84
2023/04/01 08:41:00;;;;;;;3.90;2.63;;;12.50;99.90;;;;;;5056479;28;20164;-82
2023/04/01 08:43:44;;;;;;;4.82;2.67;;;12.60;99.90;;;;;;5056009;28;20179;-82
2023/04/01 08:46:38;;;;;;;5.65;3.03;;;12.60;99.90;;;;;;5056096;28;20164;-82
2023/04/01 08:49:29;;;;;;;3.13;2.60;;;12.60;99.90;;;;;;5054951;28;20214;-82
2023/04/01 08:52:26;;;;;;;3.63;2.22;;;12.60;99.90;;;;;;5055219;28;20192;-82
2023/04/01 08:55:12;;;;;;;4.70;1.90;;;12.60;99.90;;;;;;5054856;28;20180;-82
2023/04/01 08:57:50;;;;;;;3.45;2.40;;;12.50;99.90;;;;;;5056050;28;20200;-82
2023/04/01 09:00:32;;;;;;;4.78;2.85;;;12.50;99.90;;;;;;5055524;28;20663;-83
2023/04/01 09:03:36;;;;;;;3.63;2.28;;;12.50;99.90;;;;;;5055924;28;20156;-81
2023/04/01 09:06:05;;;;;;;5.43;1.73;;;12.40;99.90;;;;;;5021889;28;20184;-83
2023/04/01 09:09:01;;;;;;;2.08;1.88;;;12.40;99.90;;;;;;5055592;28;20183;-82
2023/04/01 09:11:49;;;;;;;2.67;1.77;;;12.70;99.90;;;;;;5054467;28;20188;-81
2023/04/01 09:14:54;;;;;;;2.67;1.70;;;12.70;99.90;;;;;;5055512;28;20184;-83
2023/04/01 09:17:54;;;;;;;3.70;1.83;;;12.90;99.90;;;;;;5053889;28;20234;-82
2023/04/01 09:20:38;;;;;;;3.85;1.70;;;12.80;99.90;;;;;;5054244;28;20526;-82
2023/04/01 09:23:22;;;;;;;4.05;2.20;;;12.80;99.90;;;;;;5054233;28;20235;-82
2023/04/01 09:25:51;;;;;;;2.58;1.75;;;12.80;99.90;;;;;;5055826;28;20160;-82
2023/04/01 09:28:37;;;;;;;2.08;1.58;;;13.00;99.90;;;;;;5053869;28;20175;-85
2023/04/01 09:31:08;;;;;;;3.88;2.28;;;13.30;99.90;;;;;;5054978;28;20187;-81
2023/04/01 09:34:11;;;;;;;2.25;1.60;;;13.40;99.90;;;;;;5052521;28;20184;-82
2023/04/01 09:36:40;;;;;;;5.78;1.75;;;13.50;99.90;;;;;;5053774;28;20188;-82
2023/04/01 09:39:12;;;;;;;1.73;1.00;;;13.60;99.90;;;;;;5053601;28;20176;-82
2023/04/01 09:41:59;;;;;;;2.92;1.80;;;13.70;99.90;;;;;;5055009;28;20373;-82
2023/04/01 09:44:47;;;;;;;3.25;2.05;;;13.60;99.90;;;;;;5053755;28;20191;-82
2023/04/01 09:47:53;;;;;;;4.00;1.48;;;13.50;99.90;;;;;;5054941;28;20664;-83
2023/04/01 09:50:31;;;;;;;1.83;1.67;;;13.20;99.90;;;;;;5053445;28;20235;-82
2023/04/01 09:53:07;;;;;;;2.83;1.63;;;13.00;99.90;;;;;;5055278;28;20174;-82
2023/04/01 09:55:51;;;;;;;3.10;1.77;;;13.00;99.90;;;;;;5054590;28;20163;-82
2023/04/01 09:58:38;;;;;;;2.67;1.70;;;13.10;99.90;;;;;;5054526;28;20172;-82
2023/04/01 10:01:13;;;;;;;4.45;1.70;;;13.20;99.90;;;;;;5054902;28;20225;-82
2023/04/01 10:04:06;;;;;;;2.63;2.17;;;13.30;99.90;;;;;;5054789;28;20171;-81
2023/04/01 10:07:16;;;;;;;3.03;1.92;;;13.10;99.90;;;;;;5053307;28;20180;-82
2023/04/01 10:10:00;;;;;;;3.72;2.05;;;13.00;99.90;;;;;;5015757;28;20334;-83
2023/04/01 10:12:41;;;;;;;4.22;2.22;;;12.80;99.90;;;;;;5053010;28;20197;-82
2023/04/01 10:15:13;;;;;;;3.25;2.45;;;12.80;99.90;;;;;;5054234;28;20230;-82
2023/04/01 10:18:05;;;;;;;2.90;2.10;;;12.80;99.90;;;;;;5053856;28;20239;-82
2023/04/01 10:21:06;;;;;;;2.92;2.20;;;12.80;99.90;;;;;;5054350;28;20180;-82
2023/04/01 10:23:38;;;;;;;6.88;2.50;;;12.80;99.90;;;;;;5053884;28;20163;-82
2023/04/01 10:26:25;;;;;;;3.15;2.17;;;12.80;99.90;;;;;;5054937;28;20686;-83
2023/04/01 10:29:26;;;;;;;2.88;2.13;;;12.80;99.90;;;;;;5053297;28;20208;-82
2023/04/01 10:32:10;;;;;;;5.35;2.30;;;12.80;99.90;;;;;;5015295;28;20660;-82
2023/04/01 10:34:47;;;;;;;3.95;2.60;;;12.70;99.90;;;;;;5053931;28;20156;-82
2023/04/01 10:37:44;;;;;;;2.85;2.05;;;12.60;99.90;;;;;;5053329;28;20253;-83
2023/04/01 10:40:50;;;;;;;8.23;3.13;;;12.70;99.90;;;;;;5054528;28;20671;-83
2023/04/01 10:43:47;;;;;;;3.10;2.47;;;12.80;99.90;;;;;;5052798;28;20279;-83
2023/04/01 10:46:19;;;;;;;3.10;2.30;;;12.80;99.90;;;;;;5053764;28;20191;-83
2023/04/01 10:49:00;;;;;;;5.30;2.90;;;13.00;99.90;;;;;;5052375;28;20265;-83
2023/04/01 10:51:43;;;;;;;2.88;2.17;;;13.10;99.90;;;;;;5053692;28;20176;-84
2023/04/01 10:54:18;;;;;;;2.50;2.20;;;13.20;99.90;;;;;;5052522;28;20175;-82
2023/04/01 10:56:58;;;;;;;3.42;2.13;;;13.30;99.90;;;;;;5053423;28;20174;-83
2023/04/01 10:59:50;;;;;;;4.40;1.98;;;13.30;99.90;;;;;;5053564;28;20164;-83
2023/04/01 11:02:51;;;;;;;4.97;2.45;;;13.40;99.90;;;;;;5052204;28;20180;-82
2023/04/01 11:06:05;;;;;;;2.28;1.92;;;13.90;99.90;;;;;;5015756;28;20188;-82
2023/04/01 11:08:52;;;;;;;5.10;2.53;;;13.40;99.90;;;;;;5053459;28;20625;-81
2023/04/01 11:11:34;;;;;;;6.82;3.20;;;13.20;99.90;;;;;;5053855;28;20187;-84
2023/04/01 11:14:25;;;;;;;4.65;2.88;;;13.30;99.90;;;;;;5052456;28;20222;-84
2023/04/01 11:17:20;;;;;;;3.33;1.85;;;13.30;99.90;;;;;;5051735;28;20176;-84
2023/04/01 11:20:04;;;;;;;4.57;2.95;;;13.20;99.90;;;;;;5051903;28;20182;-83
2023/04/01 11:23:09;;;;;;;3.63;3.10;;;13.30;99.90;;;;;;5052054;28;20180;-82
2023/04/01 11:26:07;;;;;;;3.92;2.67;;;13.20;99.90;;;;;;5014321;28;20194;-84
2023/04/01 11:28:42;;;;;;;7.22;3.53;;;13.20;99.90;;;;;;5052049;28;20166;-82
2023/04/01 11:31:29;;;;;;;6.35;2.85;;;13.20;99.90;;;;;;5052349;28;20167;-82
2023/04/01 11:34:42;;;;;;;4.20;2.40;;;13.20;99.90;;;;;;5045905;28;20199;-82
2023/04/01 11:37:14;;;;;;;4.13;2.72;;;13.20;99.90;;;;;;5042294;28;20179;-83
2023/04/01 11:39:47;;;;;;;3.92;2.30;;;12.40;99.90;;;;;;5049882;28;20195;-82
2023/04/01 11:42:41;;;;;;;5.90;2.70;;;13.10;99.90;;;;;;5052097;28;20175;-83
2023/04/01 11:45:27;;;;;;;7.45;2.55;;;12.90;99.90;;;;;;5049962;28;20208;-82
2023/04/01 11:48:10;;;;;;;6.25;2.40;;;12.90;99.90;;;;;;5050860;28;20257;-83
2023/04/01 11:51:00;;;;;;;6.30;2.78;;;12.70;99.90;;;;;;5051186;28;20213;-85
2023/04/01 11:53:46;;;;;;;5.93;2.72;;;12.60;99.90;;;;;;5052209;28;20229;-82
2023/04/01 11:56:34;;;;;;;3.40;2.30;;;12.30;99.90;;;;;;5049654;28;20184;-83
2023/04/01 11:59:40;;;;;;;3.17;2.40;;;12.20;99.90;;;;;;5033832;28;20196;-83
2023/04/01 12:02:44;;;;;;;6.70;3.35;;;12.10;99.90;;;;;;5053131;28;20156;-84
2023/04/01 12:05:40;;;;;;;6.80;3.28;;;12.10;99.90;;;;;;5050670;28;20175;-84
2023/04/01 12:08:43;;;;;;;6.85;4.07;;;12.10;99.90;;;;;;5052647;28;20625;-83
2023/04/01 12:11:19;;;;;;;8.07;3.40;;;12.00;99.90;;;;;;5051580;28;20249;-83
2023/04/01 12:13:53;;;;;;;7.30;2.78;;;11.90;99.90;;;;;;5052941;28;20177;-83
2023/04/01 12:16:37;;;;;;;4.90;2.65;;;11.80;99.90;;;;;;5051503;28;20191;-82
2023/04/01 12:25:32;;;;;;;5.22;3.22;;;12.00;99.90;;;;;;5311869;22;20238;-85
2023/04/01 12:28:31;;;;;;;4.43;2.40;;;12.10;99.90;;;;;;5075123;28;20636;-84
2023/04/01 12:31:13;;;;;;;2.72;1.35;;;12.10;99.90;;;;;;5092610;28;20223;-83
2023/04/01 12:33:41;;;;;;;2.67;1.73;;;12.10;99.90;;;;;;5074759;28;20182;-82
2023/04/01 12:36:35;;;;;;;1.77;1.08;;;12.00;99.90;;;;;;5067497;28;20182;-83
2023/04/01 12:39:33;;;;;;;1.23;1.05;;;12.10;99.90;;;;;;5054903;28;20689;-83
2023/04/01 12:42:28;;;;;;;2.95;1.42;;;12.00;99.90;;;;;;5066891;28;20172;-83
2023/04/01 12:45:35;;;;;;;1.02;0.88;;;12.00;99.90;;;;;;5081298;28;20183;-83
2023/04/01 12:48:20;;;;;;;1.40;1.30;;;12.00;99.90;;;;;;5022978;28;20255;-84
2023/04/01 12:50:49;;;;;;;1.77;1.30;;;12.00;99.90;;;;;;5067245;28;20198;-84
2023/04/01 12:53:37;;;;;;;1.50;1.40;;;12.00;99.90;;;;;;5082961;28;20182;-83
2023/04/01 12:56:07;;;;;;;2.60;1.05;;;12.00;99.90;;;;;;5063801;28;20244;-83
2023/04/01 12:58:47;;;;;;;2.90;1.42;;;12.00;99.90;;;;;;5070823;28;20178;-83
2023/04/01 13:01:27;;;;;;;1.92;1.00;;;12.00;99.90;;;;;;5067256;28;20182;-84
2023/04/01 13:04:01;;;;;;;1.40;0.98;;;12.40;99.90;;;;;;5085335;28;20159;-83
2023/04/01 13:06:36;;;;;;;2.35;0.98;;;12.90;99.90;;;;;;5066445;28;20181;-83
2023/04/01 13:09:16;;;;;;;1.98;1.20;;;13.60;99.90;;;;;;5083122;28;20182;-85
2023/04/01 13:12:09;;;;;;;1.00;0.90;;;14.20;99.90;;;;;;5065628;28;20190;-82
2023/04/01 13:14:57;;;;;;;2.50;1.50;;;15.10;99.90;;;;;;5066824;28;20226;-83
2023/04/01 13:17:26;;;;;;;1.40;1.27;;;15.00;99.90;;;;;;5083878;28;20262;-84
2023/04/01 13:20:30;;;;;;;1.70;1.13;;;14.60;99.90;;;;;;5069240;28;20275;-84
2023/04/01 13:23:34;;;;;;;4.93;1.45;;;14.40;99.90;;;;;;5068429;28;20241;-83
2023/04/01 13:26:09;;;;;;;2.35;1.58;;;14.10;99.90;;;;;;5069324;28;20190;-84
2023/04/01 13:29:07;;;;;;;3.42;1.67;;;13.90;99.90;;;;;;5071463;28;20178;-82
2023/04/01 13:32:03;;;;;;;2.47;1.45;;;13.60;99.90;;;;;;5060519;28;20211;-82
2023/04/01 13:35:02;;;;;;;2.35;1.50;;;13.20;99.90;;;;;;5083165;28;20181;-84
2023/04/01 13:37:37;;;;;;;2.72;1.67;;;13.30;99.90;;;;;;5064839;28;20253;-83
2023/04/01 13:40:18;;;;;;;4.78;2.42;;;13.20;99.90;;;;;;5080702;28;20266;-83
2023/04/01 13:42:51;;;;;;;9.93;4.65;;;13.00;99.90;;;;;;5082754;28;20250;-83
2023/04/01 13:45:24;;;;;;;9.25;5.07;;;12.90;99.90;;;;;;5086684;28;20166;-83